Lewisville's Hourly Summary for Sunday, May 13, 2018
Hour Temp
(f)
RH
(%)
Solar Rad.
(MJ/m2)
Rainfall
(in)
Wind
(mph)
5/13/2018 12:00 AM 79 64 0 0 7.56
5/13/2018 1:00 AM 78 69 0 0 9.08
5/13/2018 2:00 AM 77 71 0 0 9.42
5/13/2018 3:00 AM 76 76 0 0 9.25
5/13/2018 4:00 AM 74 78 0 0 8.14
5/13/2018 5:00 AM 73 81 0 0 7.37
5/13/2018 6:00 AM 72 83 0.03 0 7.56
5/13/2018 7:00 AM 73 79 0.49 0 6.27
5/13/2018 8:00 AM 74 73 0.73 0 8.31
5/13/2018 9:00 AM 77 67 1.51 0 9.1
5/13/2018 10:00 AM 78 63 1.37 0 8.64
5/13/2018 11:00 AM 80 55 2 0 8.09
5/13/2018 12:00 PM 83 50 2.51 0 9.79
5/13/2018 1:00 PM 85 48 2.73 0 9.77
5/13/2018 2:00 PM 86 45 2.47 0 9.26
5/13/2018 3:00 PM 87 44 2.36 0 9.63
5/13/2018 4:00 PM 87 44 1.82 0 9.59
5/13/2018 5:00 PM 87 44 1.46 0 9.63
5/13/2018 6:00 PM 86 44 0.79 0 9.25
5/13/2018 7:00 PM 85 47 0.28 0 8.57
5/13/2018 8:00 PM 83 50 0.01 0 6.77
5/13/2018 9:00 PM 81 56 0 0 3.73
5/13/2018 10:00 PM 80 59 0 0 3.63
5/13/2018 11:00 PM 79 63 0 0 3.47
Data Summary 80 60 20.56 0.00 8.00